Time;durP1;ratioP1;P1;durP2;ratioP2;P2;SDS_P1;SDS_P2;PMS_P1;PMS_P2;Temp;Humidity;BMP_temperature;BMP_pressure;BME280_temperature;BME280_humidity;BME280_pressure;Samples;Min_cycle;Max_cycle;Signal;HPM_P1;HPM_P2
2021/07/04 00:00:42;;;;;;;33.53;30.03;;;;;;;;;;2090029;28;20219;-75
2021/07/04 00:01:46;;;;;;;33.87;30.27;;;;;;;;;;2089261;28;20453;-77
2021/07/04 00:02:48;;;;;;;32.30;28.77;;;;;;;-144.27;100.00;69759.91;2089313;28;20845;-77
2021/07/04 00:03:49;;;;;;;35.27;31.07;;;;;;;;;;2089580;28;20441;-77
2021/07/04 00:04:50;;;;;;;38.10;32.20;;;;;;;;;;2081244;28;20462;-76
2021/07/04 00:05:51;;;;;;;35.40;31.10;;;;;;;;;;2089443;28;20457;-76
2021/07/04 00:06:52;;;;;;;36.53;32.60;;;;;;;;;;2089368;28;20291;-77
2021/07/04 00:07:54;;;;;;;41.57;31.90;;;;;;;;;;2089883;28;20499;-76
2021/07/04 00:08:54;;;;;;;37.70;32.33;;;;;;;;;;2089226;28;20230;-77
2021/07/04 00:09:56;;;;;;;37.80;32.30;;;;;;;;;;2081011;28;20442;-76
2021/07/04 00:10:58;;;;;;;38.27;31.77;;;;;;;;;;2089174;28;20239;-76
2021/07/04 00:11:59;;;;;;;35.47;31.73;;;;;;;;;;2089426;28;20465;-76
2021/07/04 00:13:00;;;;;;;37.10;32.80;;;;;;;;;;2081178;28;20972;-77
2021/07/04 00:14:01;;;;;;;35.80;32.07;;;;;;;;;;2080880;28;20873;-77
2021/07/04 00:15:03;;;;;;;38.37;32.37;;;;;;;;;;2089288;28;20218;-77
2021/07/04 00:16:06;;;;;;;42.47;33.83;;;;;;;;;;2089389;28;20457;-76
2021/07/04 00:17:07;;;;;;;37.87;32.73;;;;;;;;;;2074491;28;20517;-78
2021/07/04 00:18:10;;;;;;;37.27;33.23;;;;;;;;;;2074583;28;20455;-77
2021/07/04 00:19:11;;;;;;;44.83;33.53;;;;;;;22.40;100.00;57744.00;2072775;28;20302;-76
2021/07/04 00:20:15;;;;;;;45.23;33.33;;;;;;;;;;2079195;28;20448;-76
2021/07/04 00:21:16;;;;;;;42.63;33.97;;;;;;;22.40;100.00;57728.81;2083717;28;20521;-77
2021/07/04 00:22:17;;;;;;;41.33;33.83;;;;;;;;;;2081558;28;20478;-77
2021/07/04 00:23:18;;;;;;;40.43;33.60;;;;;;;;;;2080535;28;20219;-77
2021/07/04 00:24:19;;;;;;;38.73;34.53;;;;;;;;;;2080888;28;20454;-76
2021/07/04 00:25:21;;;;;;;43.53;35.57;;;;;;;;;;2080804;28;20578;-76
2021/07/04 00:26:22;;;;;;;39.93;35.63;;;;;;;22.40;100.00;57728.81;2078315;28;20470;-78
2021/07/04 00:27:23;;;;;;;39.00;33.77;;;;;;;;;;2089026;28;20967;-76
2021/07/04 00:28:25;;;;;;;39.10;33.20;;;;;;;;;;2089823;28;20857;-76
2021/07/04 00:29:25;;;;;;;43.30;33.33;;;;;;;;;;2089155;28;20267;-76
2021/07/04 00:30:27;;;;;;;38.83;34.43;;;;;;;;;;2081029;28;21338;-76
2021/07/04 00:31:29;;;;;;;36.93;32.63;;;;;;;;;;2089039;28;20281;-76
2021/07/04 00:32:31;;;;;;;44.93;35.20;;;;;;;;;;2081237;28;20499;-77
2021/07/04 00:33:32;;;;;;;40.57;34.17;;;;;;;;;;2089156;28;20504;-77
2021/07/04 00:34:33;;;;;;;42.90;35.07;;;;;;;;;;2089009;28;20499;-76
2021/07/04 00:35:34;;;;;;;46.43;35.27;;;;;;;;;;2080906;28;20678;-76
2021/07/04 00:36:36;;;;;;;39.10;33.73;;;;;;;;;;2089047;28;20504;-77
2021/07/04 00:37:36;;;;;;;38.50;32.80;;;;;;;;;;2089369;28;20927;-78
2021/07/04 00:38:38;;;;;;;34.80;31.20;;;;;;;;;;2088887;28;20799;-77
2021/07/04 00:39:39;;;;;;;37.13;32.13;;;;;;;;;;2080931;28;20223;-77
2021/07/04 00:40:42;;;;;;;40.73;34.03;;;;;;;;;;2089034;28;20559;-77
2021/07/04 00:41:43;;;;;;;42.60;34.10;;;;;;;22.40;100.00;57836.28;2089159;28;20214;-77
2021/07/04 00:42:45;;;;;;;42.73;34.63;;;;;;;22.40;100.00;57714.63;2088845;28;20516;-76
2021/07/04 00:43:48;;;;;;;40.40;33.60;;;;;;;;;;2088828;28;20223;-76
2021/07/04 00:44:49;;;;;;;41.08;33.63;;;;;;;;;;2089261;28;20226;-76
2021/07/04 00:45:51;;;;;;;39.37;34.13;;;;;;;;;;2080764;28;20227;-76
2021/07/04 00:46:54;;;;;;;44.40;35.37;;;;;;;22.40;100.00;57713.63;2087567;28;20449;-77
2021/07/04 00:47:56;;;;;;;42.13;34.15;;;;;;;;;;2080708;28;20458;-76
2021/07/04 00:48:58;;;;;;;38.33;34.00;;;;;;;22.40;100.00;57714.63;2080691;28;20219;-77
2021/07/04 00:50:00;;;;;;;36.50;31.60;;;;;;;;;;2088976;28;20277;-77
2021/07/04 00:51:01;;;;;;;42.87;33.50;;;;;;;;;;2089692;28;20219;-76
2021/07/04 00:52:03;;;;;;;41.10;33.23;;;;;;;;;;2088936;28;20944;-77
2021/07/04 00:53:03;;;;;;;40.77;33.23;;;;;;;;;;2088913;28;20697;-77
2021/07/04 00:54:09;;;;;;;36.30;32.23;;;;;;;;;;2081949;28;20504;-75
2021/07/04 00:55:10;;;;;;;38.10;32.13;;;;;;;;;;2080590;28;20545;-76
2021/07/04 00:56:12;;;;;;;35.05;31.27;;;;;;;;;;2072482;28;20455;-76
2021/07/04 00:57:14;;;;;;;38.38;33.40;;;;;;;;;;2072681;28;20224;-77
2021/07/04 00:58:16;;;;;;;37.33;32.83;;;;;;;;;;2080654;28;20231;-76
2021/07/04 00:59:16;;;;;;;49.97;35.20;;;;;;;;;;2072518;28;20232;-76
2021/07/04 01:00:20;;;;;;;39.43;33.20;;;;;;;;;;2079989;28;20707;-77
2021/07/04 01:01:21;;;;;;;40.13;33.45;;;;;;;;;;2080696;28;20466;-76
2021/07/04 01:02:24;;;;;;;40.03;34.20;;;;;;;;;;2082294;28;20721;-77
2021/07/04 01:03:26;;;;;;;40.60;34.92;;;;;;;;;;2080494;28;20246;-77
2021/07/04 01:04:31;;;;;;;43.60;34.58;;;;;;;;;;2080473;28;20623;-76
2021/07/04 01:05:33;;;;;;;38.67;34.05;;;;;;;;;;2072358;28;20308;-77
2021/07/04 01:06:35;;;;;;;43.40;35.45;;;;;;;;;;2075618;28;20236;-76
2021/07/04 01:07:36;;;;;;;42.47;34.70;;;;;;;;;;2080553;28;20291;-77
2021/07/04 01:08:38;;;;;;;43.65;35.70;;;;;;;;;;2086368;28;20222;-76
2021/07/04 01:09:39;;;;;;;42.83;34.50;;;;;;;22.40;100.00;57713.63;2088789;28;20724;-76
2021/07/04 01:10:41;;;;;;;42.50;35.35;;;;;;;;;;2088937;28;20669;-76
2021/07/04 01:11:46;;;;;;;44.28;34.60;;;;;;;;;;2080895;28;20273;-76
2021/07/04 01:12:48;;;;;;;42.73;34.87;;;;;;;;;;2080414;28;20227;-77
2021/07/04 01:13:49;;;;;;;43.10;34.63;;;;;;;;;;2080363;28;20611;-77
2021/07/04 01:14:52;;;;;;;41.03;34.15;;;;;;;;;;2080147;28;20654;-78
2021/07/04 01:15:53;;;;;;;41.50;35.50;;;;;;;;;;2080402;28;20682;-76
2021/07/04 01:16:55;;;;;;;40.53;33.80;;;;;;;;;;2080435;28;20662;-76
2021/07/04 01:17:58;;;;;;;46.10;34.58;;;;;;;;;;2080470;28;20235;-77
2021/07/04 01:19:00;;;;;;;45.05;34.92;;;;;;;;;;2088663;28;20558;-77
2021/07/04 01:20:07;;;;;;;41.97;34.60;;;;;;;;;;2088752;28;20218;-76
2021/07/04 01:21:09;;;;;;;40.50;33.53;;;;;;;;;;2088937;28;20229;-76
2021/07/04 01:22:13;;;;;;;45.47;34.53;;;;;;;;;;2088616;28;20227;-75
2021/07/04 01:23:18;;;;;;;41.67;34.00;;;;;;;;;;2088677;28;20268;-76
2021/07/04 01:24:20;;;;;;;42.70;35.35;;;;;;;;;;2088402;28;20607;-77
2021/07/04 01:25:23;;;;;;;43.55;36.17;;;;;;;;;;2088395;28;20227;-78
2021/07/04 01:26:24;;;;;;;43.30;35.72;;;;;;;;;;2088311;28;20252;-75
2021/07/04 01:27:26;;;;;;;43.57;34.77;;;;;;;;;;2080508;28;20227;-76
2021/07/04 01:28:27;;;;;;;39.75;35.35;;;;;;;;;;2080313;28;20561;-77
2021/07/04 01:29:32;;;;;;;48.38;35.63;;;;;;;;;;2080827;28;20219;-77
2021/07/04 01:30:33;;;;;;;44.47;34.90;;;;;;;;;;2088563;28;20260;-76
2021/07/04 01:31:34;;;;;;;41.83;35.07;;;;;;;;;;2088644;28;20661;-77
2021/07/04 01:32:40;;;;;;;41.80;36.00;;;;;;;;;;2088263;28;20246;-76
2021/07/04 01:33:42;;;;;;;43.03;34.63;;;;;;;;;;2088648;28;20237;-76
2021/07/04 01:34:58;;;;;;;41.88;33.42;;;;;;;;;;2081153;28;20223;-75
2021/07/04 01:35:59;;;;;;;39.20;34.13;;;;;;;;;;2079457;28;20224;-76
2021/07/04 01:37:04;;;;;;;38.03;33.83;;;;;;;;;;2082747;28;20353;-77
2021/07/04 01:38:07;;;;;;;41.80;33.17;;;;;;;;;;2080320;28;20303;-76
2021/07/04 01:39:09;;;;;;;41.03;34.35;;;;;;;;;;2075684;28;20224;-76
2021/07/04 01:40:17;;;;;;;39.17;33.60;;;;;;;;;;2072932;28;20216;-76
2021/07/04 01:41:19;;;;;;;42.65;34.13;;;;;;;;;;2080218;28;20239;-76
2021/07/04 01:42:22;;;;;;;41.13;33.83;;;;;;;;;;2080196;28;20231;-77
2021/07/04 01:43:23;;;;;;;37.55;33.50;;;;;;;;;;2075748;28;20250;-76
2021/07/04 01:44:25;;;;;;;39.45;34.10;;;;;;;;;;2088279;28;20373;-77
2021/07/04 01:45:26;;;;;;;40.03;33.78;;;;;;;;;;2080267;28;20226;-76
2021/07/04 01:46:27;;;;;;;39.03;33.07;;;;;;;;;;2080073;28;20251;-76
2021/07/04 01:47:36;;;;;;;39.60;32.50;;;;;;;;;;2088202;28;20576;-76
2021/07/04 01:48:37;;;;;;;40.22;33.47;;;;;;;;;;2079916;28;20231;-78
2021/07/04 01:49:42;;;;;;;38.72;33.30;;;;;;;;;;2088171;28;20265;-77
2021/07/04 01:50:46;;;;;;;36.20;32.35;;;;;;;;;;2088467;28;20222;-77
2021/07/04 01:51:47;;;;;;;38.17;33.75;;;;;;;;;;2080416;28;20235;-76
2021/07/04 01:52:57;;;;;;;36.95;32.58;;;;;;;;;;2088296;28;20257;-77
2021/07/04 01:53:57;;;;;;;41.20;32.85;;;;;;;;;;2088258;28;20591;-76
2021/07/04 01:55:10;;;;;;;36.58;32.63;;;;;;;;;;2081428;28;20231;-77
2021/07/04 01:56:13;;;;;;;39.38;33.15;;;;;;;;;;2080200;28;20231;-77
2021/07/04 01:57:21;;;;;;;36.38;32.65;;;;;;;;;;2088473;28;20222;-76
2021/07/04 01:58:31;;;;;;;38.10;32.60;;;;;;;;;;2086869;28;20226;-76
2021/07/04 01:59:35;;;;;;;38.17;32.80;;;;;;;;;;2080725;28;20621;-77
2021/07/04 02:00:47;;;;;;;36.88;32.88;;;;;;;;;;2088130;28;20638;-76
2021/07/04 02:01:48;;;;;;;39.00;33.72;;;;;;;;;;2088244;28;20610;-76
2021/07/04 02:02:52;;;;;;;35.80;31.95;;;;;;;;;;2088305;28;20577;-77
2021/07/04 02:03:59;;;;;;;36.35;32.35;;;;;;;;;;2080768;28;20230;-76
2021/07/04 02:05:01;;;;;;;36.60;32.25;;;;;;;;;;2080003;28;20231;-76
2021/07/04 02:06:03;;;;;;;37.38;31.48;;;;;;;14.57;nan;98635.25;2088243;28;20302;-77
2021/07/04 02:07:05;;;;;;;35.70;31.52;;;;;;;;;;2088151;28;20227;-76
2021/07/04 02:08:06;;;;;;;35.20;31.48;;;;;;;;;;2088989;28;20229;-77
2021/07/04 02:09:09;;;;;;;37.60;32.22;;;;;;;;;;2087930;28;20306;-76
2021/07/04 02:10:14;;;;;;;38.70;32.05;;;;;;;;;;2080116;28;20664;-76
2021/07/04 02:11:19;;;;;;;39.08;32.97;;;;;;;;;;2080836;28;20223;-77
2021/07/04 02:12:24;;;;;;;36.15;31.45;;;;;;;;;;2087897;28;20669;-75
2021/07/04 02:13:29;;;;;;;38.20;32.80;;;;;;;;;;2088135;28;20276;-76
2021/07/04 02:14:30;;;;;;;45.45;33.22;;;;;;;;;;2080117;28;20299;-76
2021/07/04 02:15:41;;;;;;;36.38;32.35;;;;;;;;;;2081077;28;20254;-76
2021/07/04 02:16:47;;;;;;;36.63;32.28;;;;;;;;;;2080938;28;20226;-77
2021/07/04 02:18:16;;;;;;;36.30;32.47;;;;;;;;;;2082674;28;20333;-76
2021/07/04 02:19:36;;;;;;;36.80;31.95;;;;;;;;;;2080566;28;20222;-75
2021/07/04 02:20:54;;;;;;;39.75;32.85;;;;;;;;;;2083219;28;20689;-76
2021/07/04 02:22:01;;;;;;;38.33;32.67;;;;;;;22.40;100.00;57836.28;2072598;28;20227;-77
2021/07/04 02:23:18;;;;;;;39.83;32.08;;;;;;;;;;2079120;28;20712;-76
2021/07/04 02:24:42;;;;;;;36.17;32.15;;;;;;;;;;2082426;28;20230;-76
2021/07/04 02:25:57;;;;;;;39.55;32.30;;;;;;;22.40;100.00;57744.00;2080839;28;20326;-75
2021/07/04 02:26:59;;;;;;;39.67;32.17;;;;;;;;;;2080151;28;20268;-76
2021/07/04 02:28:16;;;;;;;34.17;30.55;;;;;;;;;;2075396;28;20302;-77
2021/07/04 02:29:16;;;;;;;39.67;32.88;;;;;;;22.40;100.00;57836.78;2080487;28;20219;-77
2021/07/04 02:30:22;;;;;;;36.40;32.45;;;;;;;;;;2085898;28;20222;-77
2021/07/04 02:31:28;;;;;;;38.95;33.17;;;;;;;;;;2088158;28;20215;-77
2021/07/04 02:32:31;;;;;;;36.85;32.85;;;;;;;;;;2079970;28;20220;-76
2021/07/04 02:33:35;;;;;;;36.35;32.60;;;;;;;;;;2088108;28;20222;-76
2021/07/04 02:34:37;;;;;;;36.55;32.55;;;;;;;;;;2087696;28;20673;-77
2021/07/04 02:35:40;;;;;;;38.33;31.90;;;;;;;;;;2079685;28;20237;-77
2021/07/04 02:36:43;;;;;;;37.53;33.53;;;;;;;;;;2080160;28;20574;-77
2021/07/04 02:37:52;;;;;;;35.75;31.95;;;;;;;;;;2080825;28;20227;-77
2021/07/04 02:38:59;;;;;;;37.65;32.58;;;;;;;;;;2087901;28;20223;-77
2021/07/04 02:40:01;;;;;;;36.73;32.73;;;;;;;;;;2088832;28;20218;-77
2021/07/04 02:41:04;;;;;;;38.70;33.00;;;;;;;;;;2087980;28;20222;-76
2021/07/04 02:42:05;;;;;;;37.58;33.53;;;;;;;;;;2080215;28;20250;-77
2021/07/04 02:43:11;;;;;;;36.28;32.22;;;;;;;;;;2073490;28;20224;-77
2021/07/04 02:44:12;;;;;;;37.45;33.38;;;;;;;;;;2079781;28;20698;-76
2021/07/04 02:45:17;;;;;;;39.95;32.95;;;;;;;;;;2079617;28;20223;-76
2021/07/04 02:46:20;;;;;;;40.63;33.85;;;;;;;;;;2079799;28;20219;-76
2021/07/04 02:47:22;;;;;;;39.80;32.87;;;;;;;;;;2085655;28;20231;-78
2021/07/04 02:48:25;;;;;;;37.33;33.20;;;;;;;;;;2087950;28;20226;-77
2021/07/04 02:49:27;;;;;;;40.57;33.27;;;;;;;;;;2079672;28;20223;-77
2021/07/04 02:50:30;;;;;;;36.95;32.85;;;;;;;;;;2080273;28;20469;-75
2021/07/04 02:51:32;;;;;;;40.58;32.53;;;;;;;;;;2087886;28;20239;-77
2021/07/04 02:52:34;;;;;;;43.35;33.65;;;;;;;;;;2080037;28;20722;-75
2021/07/04 02:53:36;;;;;;;37.77;32.90;;;;;;;;;;2079828;28;20614;-77
2021/07/04 02:54:44;;;;;;;38.13;33.88;;;;;;;;;;2080421;28;20674;-76
2021/07/04 02:55:52;;;;;;;37.78;33.67;;;;;;;;;;2080554;28;20226;-76
2021/07/04 02:56:57;;;;;;;37.53;33.22;;;;;;;;;;2079795;28;20262;-76
2021/07/04 02:57:59;;;;;;;39.17;34.15;;;;;;;;;;2079737;28;20293;-76
2021/07/04 02:58:59;;;;;;;37.00;33.17;;;;;;;;;;2079784;28;20227;-77
2021/07/04 03:00:02;;;;;;;35.88;32.08;;;;;;;;;;2079700;28;20577;-77
2021/07/04 03:01:04;;;;;;;38.72;32.88;;;;;;;;;;2079910;28;20367;-76
2021/07/04 03:02:05;;;;;;;38.53;33.83;;;;;;;;;;2079556;28;20748;-76
2021/07/04 03:03:08;;;;;;;36.90;33.13;;;;;;;;;;2087534;28;20222;-76
2021/07/04 03:04:10;;;;;;;37.55;33.53;;;;;;;;;;2087916;28;20254;-76
2021/07/04 03:05:12;;;;;;;40.60;34.03;;;;;;;;;;2088107;28;20795;-77
2021/07/04 03:06:14;;;;;;;37.60;32.85;;;;;;;;;;2079889;28;20764;-77
2021/07/04 03:07:17;;;;;;;38.42;32.45;;;;;;;;;;2087569;28;20235;-75
2021/07/04 03:08:18;;;;;;;37.22;32.60;;;;;;;;;;2088076;28;20210;-77
2021/07/04 03:09:19;;;;;;;40.57;33.07;;;;;;;;;;2087653;28;20257;-77
2021/07/04 03:10:22;;;;;;;37.63;33.55;;;;;;;;;;2079361;28;20242;-77
2021/07/04 03:11:26;;;;;;;40.10;32.92;;;;;;;;;;2087800;28;20246;-77
2021/07/04 03:12:28;;;;;;;35.80;31.88;;;;;;;;;;2088682;28;20234;-76
2021/07/04 03:13:34;;;;;;;38.95;33.85;;;;;;;;;;2087831;28;20315;-75
2021/07/04 03:14:37;;;;;;;38.67;32.63;;;;;;;;;;2079696;28;20227;-77
2021/07/04 03:15:39;;;;;;;36.90;33.00;;;;;;;;;;2087848;28;20227;-77
2021/07/04 03:16:41;;;;;;;38.85;32.08;;;;;;;;;;2088624;28;20227;-76
2021/07/04 03:17:43;;;;;;;37.20;32.90;;;;;;;;;;2087842;28;20739;-76
2021/07/04 03:18:43;;;;;;;37.72;33.50;;;;;;;13.95;nan;98653.00;2087770;28;20226;-75
2021/07/04 03:19:45;;;;;;;36.92;33.00;;;;;;;;;;2087736;28;20219;-77
2021/07/04 03:20:46;;;;;;;37.58;33.50;;;;;;;;;;2079600;28;20302;-76
2021/07/04 03:21:49;;;;;;;40.85;34.03;;;;;;;;;;2079941;28;20234;-76
2021/07/04 03:22:49;;;;;;;37.38;33.28;;;;;;;22.40;100.00;57774.44;2079797;28;20227;-77
2021/07/04 03:23:52;;;;;;;40.67;33.58;;;;;;;;;;2087692;28;20230;-78
2021/07/04 03:24:54;;;;;;;37.75;33.72;;;;;;;;;;2087776;28;20323;-76
2021/07/04 03:25:57;;;;;;;44.95;34.63;;;;;;;;;;2087781;28;20231;-76
2021/07/04 03:27:03;;;;;;;37.10;33.08;;;;;;;;;;2087696;28;20219;-77
2021/07/04 03:28:08;;;;;;;36.75;32.90;;;;;;;;;;2087946;28;20730;-77
2021/07/04 03:29:11;;;;;;;36.78;32.97;;;;;;;;;;2080683;28;23237;-77
2021/07/04 03:30:20;;;;;;;37.90;32.65;;;;;;;;;;2072153;28;20224;-76
2021/07/04 03:31:21;;;;;;;41.95;34.17;;;;;;;;;;2079677;28;20693;-75
2021/07/04 03:32:24;;;;;;;36.75;32.78;;;;;;;;;;2085638;28;20230;-76
2021/07/04 03:33:29;;;;;;;40.28;33.92;;;;;;;;;;2080013;28;20227;-77
2021/07/04 03:34:32;;;;;;;38.90;32.78;;;;;;;;;;2079841;28;20235;-76
2021/07/04 03:35:33;;;;;;;37.67;33.08;;;;;;;;;;2087732;28;20225;-76
2021/07/04 03:36:41;;;;;;;40.80;33.88;;;;;;;;;;2080045;28;20243;-76
2021/07/04 03:37:45;;;;;;;39.70;32.97;;;;;;;;;;2087664;28;20253;-77
2021/07/04 03:38:49;;;;;;;38.13;33.60;;;;;;;;;;2088077;28;20222;-77
2021/07/04 03:39:51;;;;;;;39.85;34.17;;;;;;;;;;2087924;28;20735;-76
2021/07/04 03:40:54;;;;;;;38.10;32.88;;;;;;;;;;2079262;28;20227;-77
2021/07/04 03:42:03;;;;;;;39.33;33.85;;;;;;;;;;2080428;28;20246;-76
2021/07/04 03:43:08;;;;;;;38.85;33.85;;;;;;;;;;2087714;28;20284;-77
2021/07/04 03:44:12;;;;;;;36.97;32.97;;;;;;;;;;2079812;28;20235;-76
2021/07/04 03:45:17;;;;;;;35.88;32.10;;;;;;;;;;2079974;28;20735;-76
2021/07/04 03:46:20;;;;;;;37.88;33.08;;;;;;;22.40;100.00;57715.13;2087776;28;20222;-76
2021/07/04 03:47:25;;;;;;;38.10;32.85;;;;;;;;;;2072944;28;20285;-76
2021/07/04 03:48:28;;;;;;;38.30;32.78;;;;;;;;;;2071714;28;20275;-76
2021/07/04 03:49:39;;;;;;;38.78;33.40;;;;;;;;;;2085626;28;20222;-76
2021/07/04 03:50:45;;;;;;;40.50;33.88;;;;;;;;;;2080108;28;20223;-77
2021/07/04 03:51:47;;;;;;;41.85;32.92;;;;;;;;;;2080000;28;20326;-76
2021/07/04 03:52:53;;;;;;;42.00;33.70;;;;;;;;;;2079833;28;20219;-76
2021/07/04 03:53:56;;;;;;;38.30;33.55;;;;;;;;;;2080688;28;20227;-77
2021/07/04 03:54:56;;;;;;;42.35;33.95;;;;;;;22.40;100.00;57713.63;2079484;28;20239;-75
2021/07/04 03:56:03;;;;;;;38.08;33.95;;;;;;;;;;2079427;28;20228;-76
2021/07/04 03:57:21;;;;;;;39.45;33.75;;;;;;;;;;2079453;28;20601;-76
2021/07/04 03:58:25;;;;;;;41.00;34.45;;;;;;;;;;2076961;28;20227;-76
2021/07/04 03:59:26;;;;;;;41.42;32.83;;;;;;;;;;2071472;28;20235;-77
2021/07/04 04:00:28;;;;;;;40.40;33.00;;;;;;;;;;2071324;28;20702;-76
2021/07/04 04:01:37;;;;;;;37.88;33.22;;;;;;;22.40;100.00;57744.00;2074400;28;20594;-76
2021/07/04 04:02:39;;;;;;;36.10;32.25;;;;;;;22.40;100.00;57744.00;2073042;28;20232;-75
2021/07/04 04:03:39;;;;;;;38.67;32.90;;;;;;;;;;2081291;28;20227;-75
2021/07/04 04:04:42;;;;;;;41.08;34.03;;;;;;;22.40;100.00;57714.63;2071268;28;20246;-76
2021/07/04 04:05:43;;;;;;;36.10;32.28;;;;;;;;;;2079477;28;20220;-76
2021/07/04 04:06:44;;;;;;;37.00;32.43;;;;;;;;;;2079312;28;20297;-77
2021/07/04 04:07:49;;;;;;;39.22;33.00;;;;;;;;;;2071799;28;20659;-76
2021/07/04 04:08:50;;;;;;;38.43;33.27;;;;;;;22.40;100.00;57728.81;2079479;28;20220;-76
2021/07/04 04:10:00;;;;;;;37.53;33.60;;;;;;;;;;2074141;28;20247;-76
2021/07/04 04:11:04;;;;;;;42.40;33.30;;;;;;;;;;2075329;28;20228;-76
2021/07/04 04:12:05;;;;;;;50.15;33.70;;;;;;;;;;2079526;28;20702;-76
2021/07/04 04:13:11;;;;;;;36.70;32.47;;;;;;;;;;2077903;28;20237;-75
2021/07/04 04:14:14;;;;;;;38.15;32.67;;;;;;;;;;2079739;28;20226;-76
2021/07/04 04:15:19;;;;;;;37.75;32.85;;;;;;;;;;2079962;28;20307;-76
2021/07/04 04:16:22;;;;;;;42.42;33.45;;;;;;;;;;2087410;28;20222;-76
2021/07/04 04:17:26;;;;;;;38.63;32.80;;;;;;;;;;2088458;28;20685;-77
2021/07/04 04:18:30;;;;;;;40.72;33.03;;;;;;;;;;2087453;28;20226;-75
2021/07/04 04:19:32;;;;;;;37.85;33.67;;;;;;;;;;2087558;28;20566;-76
2021/07/04 04:20:34;;;;;;;36.53;32.47;;;;;;;;;;2087774;28;20219;-75
2021/07/04 04:21:38;;;;;;;37.13;33.13;;;;;;;;;;2087519;28;20218;-76
2021/07/04 04:22:42;;;;;;;37.10;33.08;;;;;;;;;;2089875;28;20249;-76
2021/07/04 04:23:44;;;;;;;40.33;33.83;;;;;;;;;;2089123;28;20724;-76
2021/07/04 04:24:49;;;;;;;41.22;34.53;;;;;;;;;;2081198;28;20315;-75
2021/07/04 04:25:51;;;;;;;38.33;34.40;;;;;;;;;;2088910;28;20230;-75
2021/07/04 04:26:52;;;;;;;44.63;34.63;;;;;;;;;;2089331;28;20309;-75
2021/07/04 04:27:54;;;;;;;38.08;33.53;;;;;;;;;;2088934;28;20318;-77
2021/07/04 04:28:56;;;;;;;41.60;33.95;;;;;;;;;;2080908;28;20227;-76
2021/07/04 04:29:58;;;;;;;39.30;33.80;;;;;;;;;;2080867;28;20235;-76
2021/07/04 04:31:00;;;;;;;42.17;33.28;;;;;;;;;;2081099;28;20269;-76
2021/07/04 04:32:01;;;;;;;38.47;34.28;;;;;;;;;;2080916;28;20219;-76
2021/07/04 04:33:04;;;;;;;40.17;32.50;;;;;;;;;;2081017;28;20219;-76
2021/07/04 04:34:05;;;;;;;42.85;34.10;;;;;;;;;;2089023;28;20309;-76
2021/07/04 04:35:08;;;;;;;38.33;33.13;;;;;;;;;;2081033;28;20226;-77
2021/07/04 04:36:08;;;;;;;37.85;32.65;;;;;;;;;;2088868;28;20222;-77
2021/07/04 04:37:10;;;;;;;39.60;33.53;;;;;;;;;;2089263;28;20774;-75
2021/07/04 04:38:11;;;;;;;38.88;32.50;;;;;;;;;;2089105;28;20231;-77
2021/07/04 04:39:12;;;;;;;41.87;33.27;;;;;;;;;;2089750;28;20305;-77
2021/07/04 04:40:13;;;;;;;37.10;32.30;;;;;;;;;;2088703;28;20230;-77
2021/07/04 04:41:14;;;;;;;40.37;32.53;;;;;;;;;;2088869;28;20222;-76
2021/07/04 04:42:15;;;;;;;43.67;34.05;;;;;;;;;;2089759;28;20249;-76
2021/07/04 04:43:16;;;;;;;41.47;33.40;;;;;;;;;;2089775;28;20211;-77
2021/07/04 04:44:17;;;;;;;42.45;32.72;;;;;;;;;;2089296;28;20735;-76
2021/07/04 04:45:20;;;;;;;40.90;33.60;;;;;;;;;;2088983;28;20572;-76
2021/07/04 04:46:20;;;;;;;37.83;32.42;;;;;;;;;;2088720;28;20272;-76
2021/07/04 04:47:22;;;;;;;39.37;33.23;;;;;;;14.62;nan;98660.00;2088916;28;20222;-76
2021/07/04 04:48:23;;;;;;;36.72;32.75;;;;;;;;;;2080069;28;20231;-77
2021/07/04 04:49:24;;;;;;;36.87;32.50;;;;;;;14.61;nan;98663.78;2080841;28;20231;-76
2021/07/04 04:50:25;;;;;;;38.25;32.70;;;;;;;;;;2088851;28;20230;-76
2021/07/04 04:51:27;;;;;;;41.10;34.00;;;;;;;;;;2089723;28;20272;-77
2021/07/04 04:52:27;;;;;;;40.17;32.88;;;;;;;;;;2088844;28;20215;-75
2021/07/04 04:53:29;;;;;;;46.30;33.73;;;;;;;;;;2080558;28;20223;-77
2021/07/04 04:54:29;;;;;;;37.05;33.05;;;;;;;14.68;nan;98658.69;2089030;28;20271;-77
2021/07/04 04:55:31;;;;;;;40.47;32.23;;;;;;;;;;2088919;28;20303;-76
2021/07/04 04:56:32;;;;;;;41.05;33.88;;;;;;;;;;2089602;28;20227;-77
2021/07/04 04:57:33;;;;;;;41.20;32.60;;;;;;;;;;2089722;28;20227;-76
2021/07/04 04:58:34;;;;;;;41.58;32.90;;;;;;;;;;2089540;28;20620;-76
2021/07/04 04:59:35;;;;;;;42.90;33.17;;;;;;;;;;2089805;28;20223;-77
2021/07/04 05:00:37;;;;;;;39.53;33.17;;;;;;;;;;2089597;28;20226;-77
2021/07/04 05:01:39;;;;;;;39.33;32.47;;;;;;;;;;2089243;28;20279;-77
2021/07/04 05:02:40;;;;;;;41.75;33.97;;;;;;;;;;2089002;28;20232;-77
2021/07/04 05:03:41;;;;;;;42.10;33.30;;;;;;;;;;2088785;28;20223;-76
2021/07/04 05:04:42;;;;;;;39.47;33.45;;;;;;;;;;2088698;28;20254;-77
2021/07/04 05:05:43;;;;;;;43.67;33.70;;;;;;;;;;2088848;28;20218;-77
2021/07/04 05:06:45;;;;;;;41.33;33.55;;;;;;;;;;2089345;28;20607;-76
2021/07/04 05:07:48;;;;;;;42.92;33.15;;;;;;;;;;2088769;28;20229;-76
2021/07/04 05:08:48;;;;;;;38.17;33.78;;;;;;;;;;2080672;28;20227;-75
2021/07/04 05:09:50;;;;;;;41.47;33.13;;;;;;;;;;2088854;28;20214;-76
2021/07/04 05:10:51;;;;;;;41.85;33.90;;;;;;;;;;2088579;28;20693;-75
2021/07/04 05:11:54;;;;;;;40.47;33.08;;;;;;;22.40;100.00;57745.03;2088500;28;20583;-78
2021/07/04 05:12:55;;;;;;;38.45;33.17;;;;;;;;;;2080555;28;20231;-77
2021/07/04 05:13:57;;;;;;;37.47;31.93;;;;;;;22.40;100.00;91335.66;2080505;28;20246;-76
2021/07/04 05:14:59;;;;;;;40.63;34.25;;;;;;;22.40;100.00;57715.41;2080010;28;20223;-76
2021/07/04 05:16:02;;;;;;;40.03;34.33;;;;;;;22.40;100.00;57715.41;2080732;28;20219;-76
2021/07/04 05:17:02;;;;;;;40.60;34.42;;;;;;;;;;2088646;28;20227;-76
2021/07/04 05:18:04;;;;;;;37.50;33.43;;;;;;;;;;2089437;28;20223;-77
2021/07/04 05:19:05;;;;;;;39.45;34.25;;;;;;;14.65;nan;98702.28;2089535;28;20720;-76
2021/07/04 05:20:09;;;;;;;39.58;33.45;;;;;;;;;;2088801;28;20211;-77
2021/07/04 05:21:10;;;;;;;45.78;34.42;;;;;;;22.40;100.00;91335.66;2073630;28;20227;-75
2021/07/04 05:22:12;;;;;;;38.83;33.40;;;;;;;22.40;100.00;57744.00;2071907;28;20224;-77
2021/07/04 05:23:13;;;;;;;42.25;34.58;;;;;;;22.40;100.00;57775.94;2080392;28;20689;-76
2021/07/04 05:24:14;;;;;;;38.37;34.17;;;;;;;22.40;100.00;91335.66;2072097;28;20648;-76
2021/07/04 05:25:15;;;;;;;43.55;35.70;;;;;;;22.40;100.00;57745.03;2080317;28;20219;-76
2021/07/04 05:26:20;;;;;;;40.10;32.67;;;;;;;22.40;100.00;57744.00;2082324;28;20281;-76
2021/07/04 05:27:21;;;;;;;39.92;34.22;;;;;;;;;;2080409;28;20302;-77
2021/07/04 05:28:23;;;;;;;38.20;33.80;;;;;;;;;;2079938;28;20231;-76
2021/07/04 05:29:24;;;;;;;39.72;33.90;;;;;;;22.40;100.00;57721.22;2072276;28;20611;-76
2021/07/04 05:30:26;;;;;;;44.53;36.43;;;;;;;22.41;100.00;91335.66;2080085;28;20235;-77
2021/07/04 05:31:27;;;;;;;46.10;35.13;;;;;;;;;;2080315;28;22340;-76
2021/07/04 05:32:29;;;;;;;41.70;33.67;;;;;;;14.59;nan;98676.75;2080179;28;20257;-76
2021/07/04 05:33:30;;;;;;;40.95;34.38;;;;;;;22.40;100.00;57728.81;2080294;28;20764;-77
2021/07/04 05:34:31;;;;;;;46.93;35.83;;;;;;;;;;2080225;28;20688;-76
2021/07/04 05:35:32;;;;;;;43.10;35.17;;;;;;;22.40;100.00;57715.41;2072087;28;20217;-77
2021/07/04 05:36:34;;;;;;;38.13;33.83;;;;;;;;;;2079939;28;20243;-77
2021/07/04 05:37:35;;;;;;;41.15;35.50;;;;;;;;;;2072002;28;20224;-77
2021/07/04 05:38:38;;;;;;;42.30;35.53;;;;;;;;;;2080322;28;20215;-76
2021/07/04 05:39:39;;;;;;;39.22;34.53;;;;;;;;;;2086714;28;20249;-77
2021/07/04 05:40:40;;;;;;;39.50;34.17;;;;;;;;;;2088520;28;20692;-76
2021/07/04 05:41:41;;;;;;;44.70;35.15;;;;;;;;;;2089122;28;20223;-77
2021/07/04 05:42:44;;;;;;;38.67;34.47;;;;;;;22.40;100.00;57715.41;2088390;28;20222;-77
2021/07/04 05:43:45;;;;;;;42.80;35.75;;;;;;;;;;2088506;28;20223;-76
2021/07/04 05:44:47;;;;;;;40.17;35.92;;;;;;;22.40;100.00;57836.78;2088377;28;20309;-77
2021/07/04 05:45:47;;;;;;;48.45;35.38;;;;;;;;;;2088400;28;20260;-76
2021/07/04 05:46:50;;;;;;;45.57;35.53;;;;;;;22.40;100.00;57728.81;2089310;28;20219;-77
2021/07/04 05:47:51;;;;;;;40.13;35.78;;;;;;;;;;2088356;28;20702;-76
2021/07/04 05:48:53;;;;;;;44.77;36.30;;;;;;;;;;2088111;28;20562;-77
2021/07/04 05:49:53;;;;;;;46.70;35.95;;;;;;;;;;2088307;28;20250;-76
2021/07/04 05:50:55;;;;;;;41.63;35.70;;;;;;;;;;2088455;28;20233;-77
2021/07/04 05:51:56;;;;;;;39.97;35.47;;;;;;;-144.10;100.00;91335.28;2088691;28;20696;-76
2021/07/04 05:52:57;;;;;;;41.20;35.47;;;;;;;;;;2079935;28;20275;-76
2021/07/04 05:53:58;;;;;;;44.10;36.10;;;;;;;22.40;100.00;57775.44;2080108;28;20220;-77